createdAt,value
2023-05-12T00:01:02.241Z,13.50
2023-05-12T00:03:48.958Z,13.60
2023-05-12T00:06:36.407Z,13.50
2023-05-12T00:09:24.192Z,13.30
2023-05-12T00:12:11.233Z,13.20
2023-05-12T00:14:58.091Z,13.20
2023-05-12T00:17:44.554Z,13.10
2023-05-12T00:20:31.331Z,13.10
2023-05-12T00:23:17.608Z,13.00
2023-05-12T00:26:06.327Z,13.00
2023-05-12T00:28:52.886Z,13.00
2023-05-12T00:31:39.797Z,13.10
2023-05-12T00:34:27.974Z,13.30
2023-05-12T00:37:14.684Z,13.30
2023-05-12T00:40:01.061Z,13.20
2023-05-12T00:42:49.571Z,13.20
2023-05-12T00:45:36.632Z,13.20
2023-05-12T00:48:23.632Z,13.20
2023-05-12T00:51:10.775Z,13.20
2023-05-12T00:53:58.011Z,13.20
2023-05-12T00:56:44.729Z,13.10
2023-05-12T00:59:32.964Z,13.20
2023-05-12T01:02:19.518Z,13.30
2023-05-12T01:05:07.504Z,13.30
2023-05-12T01:07:54.576Z,13.30
2023-05-12T01:10:45.382Z,13.40
2023-05-12T01:13:34.401Z,13.30
2023-05-12T01:16:26.036Z,13.30
2023-05-12T01:19:26.445Z,13.20
2023-05-12T01:22:13.689Z,13.00
2023-05-12T01:25:02.593Z,13.00
2023-05-12T01:27:53.368Z,13.10
2023-05-12T01:30:42.774Z,13.00
2023-05-12T01:33:32.066Z,13.00
2023-05-12T01:36:18.956Z,13.00
2023-05-12T01:39:06.039Z,13.00
2023-05-12T01:41:52.954Z,13.00
2023-05-12T01:44:41.339Z,12.90
2023-05-12T01:47:28.208Z,12.80
2023-05-12T01:50:23.704Z,12.80
2023-05-12T01:53:11.242Z,12.70
2023-05-12T01:55:57.774Z,12.80
2023-05-12T01:58:46.484Z,12.80
2023-05-12T02:01:34.913Z,12.80
2023-05-12T02:04:21.587Z,12.70
2023-05-12T02:07:09.059Z,12.80
2023-05-12T02:09:56.031Z,12.80
2023-05-12T02:12:44.381Z,12.80
2023-05-12T02:15:32.410Z,12.60
2023-05-12T02:18:20.462Z,12.60
2023-05-12T02:21:08.796Z,12.70
2023-05-12T02:23:56.232Z,12.80
2023-05-12T02:26:43.188Z,12.70
2023-05-12T02:29:30.876Z,12.60
2023-05-12T02:32:18.358Z,12.40
2023-05-12T02:35:09.705Z,12.50
2023-05-12T02:37:58.091Z,12.60
2023-05-12T02:40:45.002Z,12.50
2023-05-12T02:43:31.828Z,12.50
2023-05-12T02:46:18.808Z,12.60
2023-05-12T02:49:05.669Z,12.60
2023-05-12T02:51:55.112Z,12.60
2023-05-12T02:54:41.530Z,12.60
2023-05-12T02:57:32.961Z,12.60
2023-05-12T03:00:20.152Z,12.60
2023-05-12T03:03:06.982Z,12.70
2023-05-12T03:05:53.730Z,12.80
2023-05-12T03:08:41.898Z,12.80
2023-05-12T03:11:28.770Z,12.70
2023-05-12T03:14:15.259Z,12.70
2023-05-12T03:17:02.177Z,12.70
2023-05-12T03:19:49.127Z,12.70
2023-05-12T03:22:37.618Z,12.70
2023-05-12T03:25:25.204Z,12.60
2023-05-12T03:28:12.828Z,12.50
2023-05-12T03:30:59.721Z,12.50
2023-05-12T03:33:46.653Z,12.60
2023-05-12T03:36:33.508Z,12.60
2023-05-12T03:39:20.556Z,12.40
2023-05-12T03:42:09.157Z,12.20
2023-05-12T03:44:56.057Z,12.30
2023-05-12T03:47:42.677Z,12.30
2023-05-12T03:50:29.285Z,12.30
2023-05-12T03:53:16.194Z,12.30
2023-05-12T03:56:05.890Z,12.30
2023-05-12T03:58:54.122Z,12.40
2023-05-12T04:01:41.212Z,12.50
2023-05-12T04:04:28.019Z,12.50
2023-05-12T04:07:14.816Z,12.60
2023-05-12T04:10:01.827Z,12.50
2023-05-12T04:12:49.206Z,12.60
2023-05-12T04:15:37.493Z,12.60
2023-05-12T04:18:24.326Z,12.60
2023-05-12T04:21:11.018Z,12.60
2023-05-12T04:23:57.907Z,12.70
2023-05-12T04:26:47.326Z,12.70
2023-05-12T04:29:34.200Z,12.70
2023-05-12T04:32:22.448Z,12.60
2023-05-12T04:35:09.990Z,12.50
2023-05-12T04:37:56.665Z,12.50
2023-05-12T04:40:43.770Z,12.50
2023-05-12T04:46:20.722Z,12.60
2023-05-12T04:49:09.989Z,12.50
2023-05-12T04:51:56.646Z,12.60
2023-05-12T04:54:43.712Z,12.60
2023-05-12T04:57:30.285Z,12.40
2023-05-12T05:00:17.618Z,12.40
2023-05-12T05:03:05.625Z,12.50
2023-05-12T05:05:53.827Z,12.40
2023-05-12T05:08:40.824Z,12.30
2023-05-12T05:11:27.882Z,12.30
2023-05-12T05:14:14.805Z,12.40
2023-05-12T05:17:01.672Z,12.30
2023-05-12T05:19:55.969Z,12.40
2023-05-12T05:22:46.431Z,12.40
2023-05-12T05:25:34.597Z,12.40
2023-05-12T05:28:21.516Z,12.40
2023-05-12T05:31:08.614Z,12.40
2023-05-12T05:33:55.904Z,12.40
2023-05-12T05:36:44.408Z,12.50
2023-05-12T05:39:32.678Z,12.60
2023-05-12T05:42:19.612Z,12.50
2023-05-12T05:45:07.738Z,12.70
2023-05-12T05:47:54.539Z,12.80
2023-05-12T05:50:41.865Z,12.80
2023-05-12T05:53:29.210Z,13.00
2023-05-12T05:56:16.984Z,12.90
2023-05-12T05:59:05.537Z,13.00
2023-05-12T06:01:52.067Z,12.90
2023-05-12T06:04:39.091Z,13.00
2023-05-12T06:07:25.507Z,13.00
2023-05-12T06:10:12.090Z,12.90
2023-05-12T06:13:00.483Z,13.00
2023-05-12T06:15:46.962Z,13.00
2023-05-12T06:18:37.672Z,13.00
2023-05-12T06:21:24.362Z,12.90
2023-05-12T06:24:11.861Z,12.90
2023-05-12T06:26:58.355Z,12.80
2023-05-12T06:29:46.623Z,12.90
2023-05-12T06:32:33.085Z,13.00
2023-05-12T06:35:20.543Z,13.10
2023-05-12T06:38:07.463Z,13.20
2023-05-12T06:40:54.459Z,13.20
2023-05-12T06:43:41.639Z,13.30
2023-05-12T06:46:29.919Z,13.30
2023-05-12T06:49:16.439Z,13.40
2023-05-12T06:52:04.009Z,13.40
2023-05-12T06:54:50.924Z,13.60
2023-05-12T06:57:38.826Z,13.80
2023-05-12T07:00:26.412Z,13.60
2023-05-12T07:03:14.907Z,13.50
2023-05-12T07:06:02.047Z,13.50
2023-05-12T07:08:49.243Z,13.70
2023-05-12T07:11:36.438Z,13.70
2023-05-12T07:14:23.382Z,13.90
2023-05-12T07:17:10.206Z,14.10
2023-05-12T07:19:57.984Z,14.10
2023-05-12T07:22:44.885Z,14.00
2023-05-12T07:25:32.268Z,14.00
2023-05-12T07:28:19.077Z,14.10
2023-05-12T07:31:07.993Z,14.20
2023-05-12T07:33:54.947Z,14.30
2023-05-12T07:36:42.682Z,14.30
2023-05-12T07:39:30.986Z,14.40
2023-05-12T07:42:17.700Z,14.40
2023-05-12T07:45:04.989Z,14.00
2023-05-12T07:47:51.858Z,14.10
2023-05-12T07:50:39.001Z,14.00
2023-05-12T07:53:27.225Z,14.20
2023-05-12T07:56:13.784Z,14.20
2023-05-12T07:59:00.312Z,14.40
2023-05-12T08:01:46.836Z,14.30
2023-05-12T08:04:33.633Z,14.20
2023-05-12T08:07:20.532Z,14.20
2023-05-12T08:10:10.222Z,14.20
2023-05-12T08:12:57.789Z,14.10
2023-05-12T08:15:46.397Z,14.30
2023-05-12T08:18:33.086Z,14.50
2023-05-12T08:21:20.093Z,14.40
2023-05-12T08:24:06.558Z,14.60
2023-05-12T08:26:54.362Z,14.80
2023-05-12T08:29:40.856Z,14.90
2023-05-12T08:32:27.969Z,15.10
2023-05-12T08:35:14.688Z,15.10
2023-05-12T08:38:02.456Z,15.30
2023-05-12T08:41:12.602Z,15.50
2023-05-12T08:44:01.447Z,15.70
2023-05-12T08:46:49.503Z,15.80
2023-05-12T08:49:38.808Z,15.90
2023-05-12T08:52:26.728Z,16.00
2023-05-12T08:55:14.473Z,16.00
2023-05-12T08:58:02.090Z,15.90
2023-05-12T09:00:51.739Z,15.80
2023-05-12T09:03:39.004Z,15.70
2023-05-12T09:06:26.096Z,15.40
2023-05-12T09:09:15.628Z,14.90
2023-05-12T09:12:03.472Z,14.50
2023-05-12T09:14:57.438Z,14.20
2023-05-12T09:17:45.509Z,14.00
2023-05-12T09:20:32.475Z,13.80
2023-05-12T09:23:20.544Z,13.90
2023-05-12T09:26:06.975Z,13.90
2023-05-12T09:28:54.927Z,13.90
2023-05-12T09:31:50.722Z,14.10
2023-05-12T09:34:41.426Z,14.30
2023-05-12T09:37:32.482Z,14.30
2023-05-12T09:40:19.430Z,14.30
2023-05-12T09:43:07.634Z,14.40
2023-05-12T09:45:55.628Z,14.70
2023-05-12T09:48:42.539Z,14.90
2023-05-12T09:51:32.393Z,15.10
2023-05-12T09:54:26.360Z,15.20
2023-05-12T09:57:15.839Z,15.30
2023-05-12T10:00:04.861Z,15.50
2023-05-12T10:02:53.484Z,15.60
2023-05-12T10:05:50.392Z,15.80
2023-05-12T10:08:42.248Z,15.90
2023-05-12T10:11:30.181Z,15.90
2023-05-12T10:14:18.568Z,16.00
2023-05-12T10:17:07.302Z,15.90
2023-05-12T10:19:54.207Z,16.00
2023-05-12T10:22:41.815Z,15.90
2023-05-12T10:25:32.561Z,15.70
2023-05-12T10:28:20.034Z,15.30
2023-05-12T10:31:07.770Z,15.30
2023-05-12T10:33:59.234Z,15.30
2023-05-12T10:36:49.243Z,15.40
2023-05-12T10:39:36.097Z,15.70
2023-05-12T10:42:26.009Z,15.90
2023-05-12T10:45:18.437Z,15.80
2023-05-12T10:48:09.639Z,15.70
2023-05-12T10:50:56.339Z,15.80
2023-05-12T10:53:50.244Z,15.90
2023-05-12T10:56:45.251Z,15.90
2023-05-12T10:59:34.399Z,15.80
2023-05-12T11:02:27.685Z,15.80
2023-05-12T11:05:14.545Z,15.80
2023-05-12T11:08:02.685Z,15.50
2023-05-12T11:10:51.320Z,15.00
2023-05-12T11:13:38.581Z,14.90
2023-05-12T11:16:26.695Z,14.80
2023-05-12T11:19:13.776Z,14.80
2023-05-12T11:22:07.293Z,14.90
2023-05-12T11:24:54.412Z,15.00
2023-05-12T11:27:47.574Z,15.10
2023-05-12T11:30:35.833Z,15.30
2023-05-12T11:33:24.325Z,15.40
2023-05-12T11:36:11.674Z,15.70
2023-05-12T11:38:58.576Z,16.00
2023-05-12T11:41:45.839Z,16.40
2023-05-12T11:44:32.505Z,16.60
2023-05-12T11:47:20.816Z,17.20
2023-05-12T11:50:10.332Z,17.50
2023-05-12T11:52:58.006Z,18.20
2023-05-12T11:55:51.900Z,18.40
2023-05-12T11:58:38.290Z,18.60
2023-05-12T12:01:25.073Z,18.20
2023-05-12T12:04:11.626Z,17.60
2023-05-12T12:06:59.929Z,17.20
2023-05-12T12:09:46.466Z,17.30
2023-05-12T12:12:32.920Z,17.30
2023-05-12T12:15:19.486Z,17.30
2023-05-12T12:18:06.312Z,17.50
2023-05-12T12:20:53.179Z,17.70
2023-05-12T12:23:50.476Z,17.50
2023-05-12T12:26:39.530Z,17.40
2023-05-12T12:29:28.395Z,17.10
2023-05-12T12:32:15.078Z,17.20
2023-05-12T12:35:03.778Z,17.30
2023-05-12T12:37:52.006Z,17.10
2023-05-12T12:40:39.967Z,16.90
2023-05-12T12:43:26.314Z,16.70
2023-05-12T12:46:13.024Z,16.80
2023-05-12T12:48:59.709Z,16.80
2023-05-12T12:51:47.240Z,16.70
2023-05-12T12:54:34.530Z,16.40
2023-05-12T12:57:23.051Z,16.30
2023-05-12T13:00:10.775Z,16.20
2023-05-12T13:02:57.781Z,16.20
2023-05-12T13:05:44.787Z,16.10
2023-05-12T13:08:31.144Z,16.10
2023-05-12T13:11:17.552Z,16.10
2023-05-12T13:14:05.436Z,16.40
2023-05-12T13:16:52.840Z,16.60
2023-05-12T13:19:39.418Z,16.80
2023-05-12T13:22:27.470Z,16.90
2023-05-12T13:25:14.446Z,16.80
2023-05-12T13:28:00.997Z,16.50
2023-05-12T13:30:49.395Z,16.20
2023-05-12T13:33:36.257Z,16.10
2023-05-12T13:36:22.945Z,16.00
2023-05-12T13:39:10.157Z,16.00
2023-05-12T13:41:56.934Z,16.10
2023-05-12T13:44:43.430Z,16.20
2023-05-12T13:47:31.716Z,16.10
2023-05-12T13:50:18.126Z,16.20
2023-05-12T13:53:05.117Z,16.30
2023-05-12T13:55:51.485Z,16.10
2023-05-12T13:58:38.396Z,16.00
2023-05-12T14:01:25.282Z,16.00
2023-05-12T14:04:14.281Z,16.00
2023-05-12T14:07:00.863Z,15.90
2023-05-12T14:09:47.308Z,15.90
2023-05-12T14:12:34.243Z,15.70
2023-05-12T14:15:29.486Z,15.50
2023-05-12T14:18:19.339Z,15.50
2023-05-12T14:21:07.270Z,15.40
2023-05-12T14:23:53.956Z,15.40
2023-05-12T14:26:40.605Z,15.40
2023-05-12T14:29:27.156Z,15.50
2023-05-12T14:32:13.738Z,15.60
2023-05-12T14:35:00.868Z,15.70
2023-05-12T14:37:48.535Z,15.70
2023-05-12T14:40:34.989Z,15.90
2023-05-12T14:43:22.019Z,16.10
2023-05-12T14:46:08.707Z,15.90
2023-05-12T14:48:55.297Z,15.80
2023-05-12T14:51:41.906Z,15.90
2023-05-12T14:54:30.423Z,15.80
2023-05-12T14:57:17.416Z,15.80
2023-05-12T15:00:04.821Z,15.80
2023-05-12T15:02:51.668Z,15.90
2023-05-12T15:05:56.987Z,16.00
2023-05-12T15:08:45.074Z,16.00
2023-05-12T15:11:32.835Z,15.80
2023-05-12T15:14:19.575Z,15.80
2023-05-12T15:17:06.141Z,15.80
2023-05-12T15:19:52.712Z,15.70
2023-05-12T15:22:39.314Z,15.70
2023-05-12T15:25:25.990Z,15.90
2023-05-12T15:28:13.728Z,15.90
2023-05-12T15:31:00.163Z,15.90
2023-05-12T15:33:46.976Z,15.90
2023-05-12T15:36:33.275Z,15.90
2023-05-12T15:39:21.097Z,16.00
2023-05-12T15:42:09.427Z,16.00
2023-05-12T15:44:57.547Z,16.00
2023-05-12T15:47:44.090Z,16.00
2023-05-12T15:50:30.929Z,16.00
2023-05-12T15:53:17.446Z,16.10
2023-05-12T15:56:05.548Z,16.00
2023-05-12T15:58:52.303Z,16.10
2023-05-12T16:01:40.163Z,16.00
2023-05-12T16:04:29.658Z,16.00
2023-05-12T16:07:16.347Z,16.00
2023-05-12T16:10:03.371Z,15.90
2023-05-12T16:12:49.979Z,15.80
2023-05-12T16:15:36.829Z,15.80
2023-05-12T16:18:24.890Z,15.60
2023-05-12T16:21:12.708Z,15.60
2023-05-12T16:23:59.083Z,15.60
2023-05-12T16:26:46.063Z,15.60
2023-05-12T16:29:33.228Z,15.60
2023-05-12T16:32:19.786Z,15.60
2023-05-12T16:35:09.529Z,15.70
2023-05-12T16:37:56.195Z,15.70
2023-05-12T16:40:43.065Z,15.70
2023-05-12T16:43:29.702Z,15.80
2023-05-12T16:46:16.767Z,15.70
2023-05-12T16:49:03.728Z,15.60
2023-05-12T16:51:51.483Z,15.60
2023-05-12T16:54:38.095Z,15.60
2023-05-12T16:57:24.955Z,15.60
2023-05-12T17:00:12.880Z,15.60
2023-05-12T17:02:59.775Z,15.60
2023-05-12T17:05:47.553Z,15.50
2023-05-12T17:08:36.270Z,15.40
2023-05-12T17:11:24.514Z,15.40
2023-05-12T17:14:10.897Z,15.30
2023-05-12T17:16:57.639Z,15.30
2023-05-12T17:19:44.680Z,15.30
2023-05-12T17:22:32.482Z,15.20
2023-05-12T17:25:20.873Z,15.20
2023-05-12T17:28:08.132Z,15.10
2023-05-12T17:30:56.383Z,15.00
2023-05-12T17:33:43.026Z,14.90
2023-05-12T17:36:29.504Z,14.90
2023-05-12T17:39:16.017Z,14.80
2023-05-12T17:42:03.912Z,14.80
2023-05-12T17:44:50.351Z,14.70
2023-05-12T17:47:37.479Z,14.70
2023-05-12T17:50:23.947Z,14.70
2023-05-12T17:53:10.618Z,14.70
2023-05-12T17:55:56.930Z,14.70
2023-05-12T17:58:45.139Z,14.50
2023-05-12T18:01:31.551Z,14.60
2023-05-12T18:04:19.318Z,14.40
2023-05-12T18:07:06.697Z,14.40
2023-05-12T18:09:53.361Z,14.40
2023-05-12T18:12:40.393Z,14.40
2023-05-12T18:15:28.746Z,14.50
2023-05-12T18:18:15.265Z,14.40
2023-05-12T18:21:02.021Z,14.40
2023-05-12T18:23:48.378Z,14.40
2023-05-12T18:26:34.873Z,14.40
2023-05-12T18:29:21.843Z,14.30
2023-05-12T18:32:10.242Z,14.30
2023-05-12T18:34:56.832Z,14.30
2023-05-12T18:37:43.899Z,14.30
2023-05-12T18:40:31.536Z,14.30
2023-05-12T18:43:19.487Z,14.20
2023-05-12T18:46:06.963Z,14.20
2023-05-12T18:48:55.012Z,14.20
2023-05-12T18:51:41.336Z,14.10
2023-05-12T18:54:27.731Z,14.10
2023-05-12T18:57:14.695Z,14.20
2023-05-12T19:00:01.458Z,14.10
2023-05-12T19:02:48.130Z,14.10
2023-05-12T19:05:36.978Z,14.10
2023-05-12T19:08:23.552Z,14.10
2023-05-12T19:11:10.419Z,14.10
2023-05-12T19:13:56.900Z,14.10
2023-05-12T19:16:46.399Z,14.00
2023-05-12T19:19:33.126Z,14.10
2023-05-12T19:22:23.394Z,14.00
2023-05-12T19:25:11.692Z,14.00
2023-05-12T19:27:58.428Z,14.10
2023-05-12T19:30:44.813Z,14.10
2023-05-12T19:33:31.964Z,14.00
2023-05-12T19:36:18.708Z,14.10
2023-05-12T19:39:06.388Z,14.20
2023-05-12T19:41:52.746Z,14.10
2023-05-12T19:44:39.209Z,14.10
2023-05-12T19:47:26.548Z,14.00
2023-05-12T19:50:13.413Z,14.00
2023-05-12T19:52:59.955Z,13.90
2023-05-12T19:55:48.288Z,13.90
2023-05-12T19:58:34.763Z,13.90
2023-05-12T20:01:21.407Z,13.90
2023-05-12T20:04:08.444Z,13.90
2023-05-12T20:06:55.454Z,13.80
2023-05-12T20:09:42.390Z,13.80
2023-05-12T20:12:30.443Z,13.80
2023-05-12T20:15:17.010Z,13.70
2023-05-12T20:18:03.324Z,13.70
2023-05-12T20:20:50.036Z,13.70
2023-05-12T20:23:36.885Z,13.70
2023-05-12T20:26:23.728Z,13.70
2023-05-12T20:29:12.008Z,13.70
2023-05-12T20:31:58.773Z,13.60
2023-05-12T20:34:45.138Z,13.60
2023-05-12T20:37:31.614Z,13.60
2023-05-12T20:40:18.252Z,13.60
2023-05-12T20:43:04.569Z,13.60
2023-05-12T20:45:52.612Z,13.60
2023-05-12T20:48:39.477Z,13.50
2023-05-12T20:51:26.651Z,13.40
2023-05-12T20:54:13.242Z,13.40
2023-05-12T20:57:00.959Z,13.30
2023-05-12T20:59:48.523Z,13.30
2023-05-12T21:02:36.468Z,13.30
2023-05-12T21:05:23.462Z,13.20
2023-05-12T21:08:10.116Z,13.10
2023-05-12T21:10:56.508Z,13.10
2023-05-12T21:13:43.630Z,13.10
2023-05-12T21:16:30.622Z,13.00
2023-05-12T21:19:19.009Z,13.00
2023-05-12T21:22:06.722Z,13.00
2023-05-12T21:24:53.469Z,12.90
2023-05-12T21:27:41.357Z,12.90
2023-05-12T21:30:27.980Z,12.90
2023-05-12T21:33:14.884Z,13.00
2023-05-12T21:36:03.383Z,12.90
2023-05-12T21:38:49.655Z,12.90
2023-05-12T21:41:38.290Z,12.90
2023-05-12T21:44:24.679Z,12.90
2023-05-12T21:47:10.999Z,12.90
2023-05-12T21:49:57.790Z,12.90
2023-05-12T21:52:45.899Z,13.00
2023-05-12T21:55:32.580Z,13.00
2023-05-12T21:58:19.314Z,13.10
2023-05-12T22:01:05.809Z,13.10
2023-05-12T22:03:52.790Z,13.10
2023-05-12T22:06:39.415Z,13.00
2023-05-12T22:09:28.768Z,13.00
2023-05-12T22:12:18.583Z,13.00
2023-05-12T22:15:05.838Z,13.10
2023-05-12T22:17:53.157Z,13.10
2023-05-12T22:20:39.853Z,13.10
2023-05-12T22:23:26.673Z,13.10
2023-05-12T22:26:14.510Z,13.10
2023-05-12T22:29:01.207Z,13.00
2023-05-12T22:31:47.947Z,13.00
2023-05-12T22:34:34.730Z,13.10
2023-05-12T22:37:22.125Z,13.20
2023-05-12T22:40:10.038Z,13.30
2023-05-12T22:42:57.970Z,13.40
2023-05-12T22:45:44.347Z,13.40
2023-05-12T22:48:33.886Z,13.40
2023-05-12T22:51:22.667Z,13.40
2023-05-12T22:54:09.090Z,13.40
2023-05-12T22:56:55.936Z,13.40
2023-05-12T22:59:44.067Z,13.30
2023-05-12T23:02:31.214Z,13.30
2023-05-12T23:05:18.106Z,13.20
2023-05-12T23:08:04.998Z,13.10
2023-05-12T23:10:51.292Z,13.10
2023-05-12T23:13:37.494Z,13.10
2023-05-12T23:16:25.724Z,13.10
2023-05-12T23:19:12.370Z,13.00
2023-05-12T23:21:59.021Z,13.00
2023-05-12T23:24:45.991Z,13.00
2023-05-12T23:27:32.364Z,13.00
2023-05-12T23:30:18.937Z,12.90
2023-05-12T23:33:07.111Z,12.90
2023-05-12T23:35:53.943Z,12.80
2023-05-12T23:38:40.590Z,12.80
2023-05-12T23:41:26.813Z,12.80
2023-05-12T23:44:13.275Z,12.70
2023-05-12T23:46:59.646Z,12.70
2023-05-12T23:49:47.536Z,12.70
2023-05-12T23:52:34.104Z,12.60
2023-05-12T23:55:20.448Z,12.60
2023-05-12T23:58:08.059Z,12.50
